Aérodrome :
LOGIN :

S'inscrire | Disclaimer

   EN    FR    IT 

 










Légende :    VFR   VFR Marginal   IFR   IFR Intensif   IFR Très Intensif
Visi : 
Plafond : 
>= 8 km
>= 3000ft
5 à 8 km
1000 à 3000 ft
1500m à 5 km
500 à 1000 ft
800 à 1500m
200 à 500 ft
< 800m
< 200 ft
Symboles :   Orages  Brouillard  Fortes neiges  Fortes précipitations  Vent > 20 kt
SIGMETs :   Divers  Orages  Givrage  Turbulence  Onde Orograph.  Cendres Volcan.






- Altitude de l'aérodrome : 1197 ft
- Code IATA : SPM


ETAD - Spangdahlem Ab

DERNIER METAR :
  • 202156Z AUTO 18014G20KT 9999 CLR 08/02 A2944 RMK AO2 SLP968 T00790019 TSNO

METARs EXPIRÉS :
  • 202056Z AUTO 19014G22KT 9999 CLR 08/02 A2946 RMK AO2 PK WND 21027/53 SLP977 T00810021 57013 TSNO
  • 201956Z AUTO 18011G20KT 9999 CLR 08/02 A2947 RMK AO2 SLP980 T00800020

TAF TAF ETAD
Valide du 20 à 13h jusqu'au 21 à 19h UTC


201301Z 2013/2119 21007KT 9999 BKN180 QNH2958INS
BECMG 2018/2019 20010G20KT 9999 SCT100 QNH2951INS
BECMG 2100/2101 19015G25KT 9999 BKN020 620206 520003 QNH2939INS
TEMPO 2103/2106 20025G35KT
BECMG 2106/2107 21015G25KT 9000 -RA OVC020 650209 530004 QNH2932INS
BECMG 2113/2114 23015G25KT 9999 NSW BKN015 OVC030 620154 520003 QNH2945INS TX07/2013Z TN04/2109Z



MET'MAP, la Météo Aéronautique d'un coup d'oeil ! - Copyright ORBIFLY Décembre 2007 - Disclaimer

ORBIFLY MET'MAP TEAM :

Programmation & Développement : Alexandra Zaïnal
Sur une idée originale de : Baudouin d'Aumeries
Assistance à la programmation : Marc-Olivier Méhu
Soutien technique & logistique : Manuel Goepfert

Contact : metmap@orbifly.com




SOURCES & CREDITS :

   NOAA